Time;durP1;ratioP1;P1;durP2;ratioP2;P2;SDS_P1;SDS_P2;PMS_P1;PMS_P2;Temp;Humidity;BMP_temperature;BMP_pressure;BME280_temperature;BME280_humidity;BME280_pressure;Samples;Min_cycle;Max_cycle;Signal;HPM_P1;HPM_P2
2024/02/04 00:01:08;;;;;;;3.90;3.70;;;10.40;26.00;;;;;;6273038;22;20374;-82
2024/02/04 00:03:58;;;;;;;4.77;4.67;;;10.40;26.10;;;;;;6282349;22;20369;-82
2024/02/04 00:06:30;;;;;;;3.93;3.83;;;10.40;26.20;;;;;;6250781;22;20463;-82
2024/02/04 00:09:00;;;;;;;3.93;3.83;;;10.40;26.10;;;;;;6284581;22;20361;-82
2024/02/04 00:11:26;;;;;;;5.30;5.10;;;10.30;25.90;;;;;;6258340;22;20182;-82
2024/02/04 00:14:24;;;;;;;4.83;4.73;;;10.30;26.30;;;;;;6292230;22;20442;-82
2024/02/04 00:17:08;;;;;;;4.90;4.70;;;10.30;26.50;;;;;;6247991;22;20464;-82
2024/02/04 00:19:49;;;;;;;4.40;4.30;;;10.20;26.40;;;;;;6263739;22;20472;-81
2024/02/04 00:22:47;;;;;;;5.43;5.23;;;10.20;26.30;;;;;;6266275;22;20400;-81
2024/02/04 00:25:58;;;;;;;4.20;4.10;;;10.30;26.40;;;;;;6273682;22;20462;-82
2024/02/04 00:28:29;;;;;;;3.90;3.80;;;10.30;26.30;;;;;;6228345;22;20472;-81
2024/02/04 00:31:33;;;;;;;4.20;4.10;;;10.40;26.00;;;;;;6187125;23;20459;-81
2024/02/04 00:34:07;;;;;;;4.17;3.97;;;10.40;25.80;;;;;;6141224;23;20388;-81
2024/02/04 00:36:43;;;;;;;3.77;3.67;;;10.50;25.90;;;;;;6179883;23;20764;-81
2024/02/04 00:39:18;;;;;;;4.10;4.00;;;10.50;26.00;;;;;;6163836;23;20391;-81
2024/02/04 00:42:05;;;;;;;3.80;3.70;;;10.60;25.70;;;;;;6169994;23;20391;-80
2024/02/04 00:44:38;;;;;;;3.70;3.60;;;10.60;25.60;;;;;;6170633;23;20392;-80
2024/02/04 00:47:36;;;;;;;3.93;3.63;;;10.70;25.60;;;;;;6187044;23;20406;-81
2024/02/04 00:50:53;;;;;;;3.70;3.60;;;10.80;25.10;;;;;;6117178;23;20396;-82
2024/02/04 01:00:58;;;;;;;3.97;3.87;;;10.90;25.00;;;;;;6188937;23;20364;-81
2024/02/04 01:03:23;;;;;;;4.03;3.93;;;11.00;24.60;;;;;;6176306;23;20495;-81
2024/02/04 01:05:49;;;;;;;3.57;3.47;;;11.00;24.30;;;;;;6278367;22;20392;-81
2024/02/04 01:08:14;;;;;;;4.07;3.97;;;10.80;24.40;;;;;;6261388;22;20185;-82
2024/02/04 01:11:31;;;;;;;4.10;4.00;;;10.80;25.20;;;;;;6258431;22;20162;-81
2024/02/04 01:14:26;;;;;;;3.83;3.73;;;10.70;24.70;;;;;;6257225;22;20193;-81
2024/02/04 01:17:00;;;;;;;3.77;3.67;;;10.70;24.90;;;;;;6282534;22;20409;-81
2024/02/04 01:20:03;;;;;;;3.80;3.70;;;10.50;25.40;;;;;;6283721;22;20393;-82
2024/02/04 01:22:50;;;;;;;4.10;3.80;;;10.50;25.60;;;;;;6282030;22;20433;-81
2024/02/04 01:25:18;;;;;;;3.90;3.80;;;10.40;25.70;;;;;;6277489;22;20402;-81
2024/02/04 01:27:57;;;;;;;4.10;4.00;;;10.40;25.50;;;;;;6303201;22;20389;-82
2024/02/04 01:30:24;;;;;;;4.10;4.00;;;10.40;25.60;;;;;;6218954;23;20397;-80
2024/02/04 01:32:49;;;;;;;4.40;4.30;;;10.40;25.50;;;;;;6271637;23;20465;-81
2024/02/04 01:35:15;;;;;;;4.07;3.97;;;10.50;25.50;;;;;;6234444;23;20162;-83
2024/02/04 01:38:04;;;;;;;3.70;3.60;;;10.50;25.60;;;;;;6237802;23;20211;-82
2024/02/04 01:43:58;;;;;;;4.00;3.90;;;10.60;25.10;;;;;;6211849;23;20394;-83
2024/02/04 01:46:23;;;;;;;4.43;4.33;;;10.70;25.00;;;;;;6254179;23;20468;-83
2024/02/04 01:49:14;;;;;;;4.50;4.40;;;10.70;24.80;;;;;;6254895;23;20155;-82
2024/02/04 01:51:56;;;;;;;4.20;4.10;;;10.90;24.50;;;;;;6251991;23;20652;-81
2024/02/04 01:54:33;;;;;;;4.67;4.40;;;10.90;24.30;;;;;;6214786;23;20386;-80
2024/02/04 01:57:17;;;;;;;5.07;4.87;;;10.80;24.20;;;;;;6230024;23;20398;-79
2024/02/04 01:59:56;;;;;;;4.70;4.50;;;10.70;24.70;;;;;;6256310;23;20389;-81
2024/02/04 02:02:28;;;;;;;5.00;4.80;;;10.40;25.10;;;;;;6255868;23;20386;-81
2024/02/04 02:05:19;;;;;;;4.20;4.10;;;10.30;25.70;;;;;;6230736;23;20382;-81
2024/02/04 02:07:47;;;;;;;4.47;4.37;;;10.20;25.90;;;;;;6235619;23;20386;-81
2024/02/04 02:10:35;;;;;;;4.50;4.40;;;10.00;26.30;;;;;;6256875;23;20371;-81
2024/02/04 02:16:52;;;;;;;4.50;4.40;;;9.80;28.10;;;;;;6256407;23;20402;-81
2024/02/04 02:20:08;;;;;;;4.57;4.47;;;9.80;27.90;;;;;;6255655;23;20375;-80
2024/02/04 02:23:38;;;;;;;4.47;4.27;;;9.90;28.00;;;;;;6162011;23;20807;-82
2024/02/04 02:26:26;;;;;;;4.67;4.57;;;9.90;27.90;;;;;;6221324;23;20398;-80
2024/02/04 02:29:13;;;;;;;4.40;4.27;;;10.10;27.10;;;;;;6254668;23;20375;-80
2024/02/04 02:32:24;;;;;;;5.00;4.90;;;10.20;27.10;;;;;;6254952;22;20425;-81
2024/02/04 02:35:16;;;;;;;5.00;4.90;;;10.50;26.10;;;;;;6128590;23;20378;-82
2024/02/04 02:38:11;;;;;;;4.97;4.87;;;10.50;25.60;;;;;;6107522;23;20441;-81
2024/02/04 02:41:53;;;;;;;4.70;4.60;;;10.40;25.70;;;;;;6257151;22;20409;-82
2024/02/04 02:44:44;;;;;;;4.83;4.70;;;10.50;25.50;;;;;;6278873;22;20388;-80
2024/02/04 02:47:11;;;;;;;4.77;4.57;;;10.60;25.20;;;;;;6280866;22;20392;-80
2024/02/04 02:49:37;;;;;;;4.43;4.33;;;10.70;25.10;;;;;;6279920;22;20473;-80
2024/02/04 02:52:03;;;;;;;4.20;4.10;;;10.70;25.10;;;;;;6280522;22;20736;-81
2024/02/04 02:54:28;;;;;;;4.17;4.07;;;10.70;24.80;;;;;;6281886;22;20373;-81
2024/02/04 02:57:23;;;;;;;4.30;4.20;;;10.50;25.30;;;;;;6281072;22;20167;-82
2024/02/04 03:00:06;;;;;;;4.03;3.93;;;10.40;25.80;;;;;;6280110;22;20154;-81
2024/02/04 03:03:21;;;;;;;4.30;4.20;;;10.30;25.70;;;;;;6255120;22;20400;-81
2024/02/04 03:05:46;;;;;;;4.93;4.73;;;10.10;26.50;;;;;;6253997;22;20487;-81
2024/02/04 03:11:21;;;;;;;4.60;4.50;;;10.00;27.10;;;;;;6282513;22;20142;-82
2024/02/04 03:13:56;;;;;;;4.50;4.40;;;9.80;28.20;;;;;;6254753;22;20385;-82
2024/02/04 03:16:52;;;;;;;4.90;4.70;;;9.90;28.20;;;;;;6248194;22;20392;-82
2024/02/04 03:19:17;;;;;;;4.50;4.40;;;9.80;28.30;;;;;;6257539;22;20373;-81
2024/02/04 03:25:29;;;;;;;4.53;4.43;;;9.80;28.60;;;;;;6269849;22;20165;-81
2024/02/04 03:28:23;;;;;;;4.67;4.57;;;10.00;27.30;;;;;;6283869;22;20378;-80
2024/02/04 03:30:49;;;;;;;4.13;4.03;;;10.00;27.70;;;;;;6283844;22;20436;-80
2024/02/04 03:33:14;;;;;;;4.77;4.67;;;10.10;27.10;;;;;;6257577;22;20859;-81
2024/02/04 03:35:40;;;;;;;4.50;4.40;;;10.20;26.60;;;;;;6263205;22;20171;-80
2024/02/04 03:38:05;;;;;;;4.27;4.17;;;10.40;26.40;;;;;;6265789;22;20229;-80
2024/02/04 03:40:31;;;;;;;4.07;3.97;;;10.50;26.20;;;;;;6284438;22;20580;-81
2024/02/04 03:42:56;;;;;;;4.90;4.80;;;10.50;26.10;;;;;;6254144;22;20166;-81
2024/02/04 03:45:22;;;;;;;4.07;3.97;;;10.50;26.20;;;;;;6260395;22;20177;-81
2024/02/04 03:47:47;;;;;;;4.40;4.30;;;10.50;26.20;;;;;;6303167;22;20173;-81
2024/02/04 03:50:13;;;;;;;4.23;4.13;;;10.70;25.90;;;;;;6304279;22;20151;-81
2024/02/04 03:52:39;;;;;;;4.77;4.57;;;10.70;25.50;;;;;;6277125;22;20178;-80
2024/02/04 03:55:05;;;;;;;5.13;5.03;;;10.70;25.20;;;;;;6303719;22;20163;-80
2024/02/04 03:57:32;;;;;;;4.77;4.67;;;10.50;25.80;;;;;;6301856;22;20182;-81
2024/02/04 03:59:58;;;;;;;4.70;4.60;;;10.50;26.20;;;;;;6255989;22;20715;-80
2024/02/04 04:02:23;;;;;;;5.43;5.33;;;10.40;26.30;;;;;;6251166;22;20465;-80
2024/02/04 04:04:49;;;;;;;5.10;4.90;;;10.20;26.40;;;;;;6250623;22;20158;-80
2024/02/04 04:07:14;;;;;;;4.37;4.27;;;10.20;26.80;;;;;;6249454;22;20174;-80
2024/02/04 04:09:40;;;;;;;4.70;4.60;;;10.20;26.90;;;;;;6249616;22;20613;-80
2024/02/04 04:12:06;;;;;;;4.70;4.60;;;10.40;26.80;;;;;;6277361;22;20197;-80
2024/02/04 04:14:31;;;;;;;4.37;4.27;;;10.50;26.30;;;;;;6277055;22;20244;-80
2024/02/04 04:16:57;;;;;;;4.63;4.53;;;10.60;26.20;;;;;;6276160;22;20852;-80
2024/02/04 04:19:22;;;;;;;4.77;4.67;;;10.70;25.50;;;;;;6250272;22;20179;-80
2024/02/04 04:21:48;;;;;;;5.20;5.00;;;10.80;25.60;;;;;;6278282;22;20275;-80
2024/02/04 04:24:15;;;;;;;4.90;4.80;;;10.90;25.20;;;;;;6251205;22;20159;-80
2024/02/04 04:26:41;;;;;;;5.17;5.07;;;11.00;24.90;;;;;;6250143;22;20678;-80
2024/02/04 04:29:06;;;;;;;4.93;4.83;;;10.70;25.40;;;;;;6251114;22;20393;-80
2024/02/04 04:31:32;;;;;;;4.93;4.83;;;10.50;26.30;;;;;;6278215;22;20189;-82
2024/02/04 04:33:57;;;;;;;5.30;5.20;;;10.50;26.50;;;;;;6279152;22;20611;-81
2024/02/04 04:36:23;;;;;;;5.10;5.00;;;10.70;26.00;;;;;;6250495;22;20166;-81
2024/02/04 04:38:50;;;;;;;5.13;5.00;;;11.00;25.30;;;;;;6251576;22;20568;-81
2024/02/04 04:41:16;;;;;;;4.83;4.73;;;11.20;24.70;;;;;;6251773;22;20163;-81
2024/02/04 04:43:41;;;;;;;4.83;4.73;;;11.30;24.10;;;;;;6278559;22;20404;-81
2024/02/04 04:46:07;;;;;;;4.93;4.83;;;11.40;24.10;;;;;;6250494;22;20181;-81
2024/02/04 04:48:32;;;;;;;4.60;4.50;;;11.40;24.10;;;;;;6251616;22;20177;-81
2024/02/04 04:50:59;;;;;;;4.97;4.87;;;11.50;24.20;;;;;;6251108;22;20423;-81
2024/02/04 04:53:24;;;;;;;5.13;5.03;;;11.50;24.20;;;;;;6277016;22;20495;-80
2024/02/04 04:56:00;;;;;;;4.80;4.70;;;11.40;24.10;;;;;;6251381;22;20401;-83
2024/02/04 04:58:33;;;;;;;5.27;5.17;;;11.40;24.20;;;;;;6270343;22;20150;-82
2024/02/04 05:01:08;;;;;;;4.83;4.73;;;11.50;23.80;;;;;;6280893;22;20445;-82
2024/02/04 05:03:54;;;;;;;5.30;5.10;;;11.50;24.20;;;;;;6235844;22;20460;-83
2024/02/04 05:07:02;;;;;;;5.17;5.07;;;11.50;23.70;;;;;;6279803;22;20858;-83
2024/02/04 05:09:34;;;;;;;5.57;5.47;;;11.50;23.70;;;;;;6280940;22;20648;-82
2024/02/04 05:12:00;;;;;;;4.73;4.63;;;11.50;23.70;;;;;;6250146;22;20483;-81
2024/02/04 05:14:26;;;;;;;4.70;4.50;;;11.50;23.40;;;;;;6252220;22;20393;-80
2024/02/04 05:16:51;;;;;;;5.40;5.20;;;11.50;23.40;;;;;;6278142;22;20178;-80
2024/02/04 05:19:16;;;;;;;5.00;4.90;;;11.40;23.40;;;;;;6252318;22;20146;-80
2024/02/04 05:21:42;;;;;;;4.77;4.67;;;11.00;24.20;;;;;;6253686;22;20165;-80
2024/02/04 05:24:08;;;;;;;4.87;4.67;;;11.10;24.60;;;;;;6280940;22;20457;-81
2024/02/04 05:26:33;;;;;;;4.83;4.73;;;11.20;24.00;;;;;;6279477;22;20292;-81
2024/02/04 05:28:59;;;;;;;4.67;4.57;;;11.30;24.10;;;;;;6253438;22;20212;-80
2024/02/04 05:31:24;;;;;;;4.90;4.80;;;11.20;24.60;;;;;;6281388;22;20178;-81
2024/02/04 05:34:34;;;;;;;5.37;5.27;;;11.30;24.10;;;;;;6254463;22;20154;-80
2024/02/04 05:37:14;;;;;;;5.17;5.07;;;11.40;24.10;;;;;;6216437;22;20198;-79
2024/02/04 05:39:50;;;;;;;4.70;4.60;;;11.40;23.70;;;;;;6256363;22;20706;-82
2024/02/04 05:42:16;;;;;;;5.20;5.10;;;11.40;24.10;;;;;;6204585;22;20385;-82
2024/02/04 05:44:41;;;;;;;5.67;5.57;;;11.30;23.60;;;;;;6254614;22;20404;-81
2024/02/04 05:47:57;;;;;;;4.80;4.70;;;11.30;24.10;;;;;;6280735;22;20166;-82
2024/02/04 05:51:06;;;;;;;4.47;4.37;;;11.40;24.00;;;;;;6230606;22;20562;-80
2024/02/04 05:53:40;;;;;;;4.67;4.57;;;11.20;23.70;;;;;;6202014;22;20393;-82
2024/02/04 05:56:20;;;;;;;4.50;4.40;;;11.20;24.00;;;;;;6283069;22;20388;-82
2024/02/04 05:58:45;;;;;;;4.90;4.80;;;11.20;23.90;;;;;;6258526;22;20463;-82
2024/02/04 06:01:19;;;;;;;4.80;4.70;;;11.20;23.70;;;;;;6284410;22;20373;-82
2024/02/04 06:10:49;;;;;;;4.87;4.73;;;10.60;24.90;;;;;;6287281;22;20360;-83
2024/02/04 06:16:45;;;;;;;4.40;4.30;;;10.70;25.60;;;;;;6263068;22;20492;-82
2024/02/04 06:19:12;;;;;;;4.60;4.50;;;10.80;25.20;;;;;;6268118;22;20380;-80
2024/02/04 06:21:59;;;;;;;4.50;4.40;;;10.80;24.90;;;;;;6281177;22;20353;-81
2024/02/04 06:24:50;;;;;;;5.00;4.90;;;10.90;24.40;;;;;;6286593;22;20407;-84
2024/02/04 06:27:40;;;;;;;5.03;4.80;;;10.80;24.80;;;;;;6101101;23;20390;-83
2024/02/04 06:30:06;;;;;;;4.67;4.57;;;10.60;25.00;;;;;;6213354;22;20401;-81
2024/02/04 06:32:58;;;;;;;5.00;4.90;;;10.50;25.60;;;;;;6257322;22;20445;-81
2024/02/04 06:35:33;;;;;;;4.97;4.77;;;10.50;25.70;;;;;;6221941;23;20459;-81
2024/02/04 06:38:00;;;;;;;5.03;4.93;;;10.60;25.40;;;;;;6170500;23;20398;-81
2024/02/04 06:41:15;;;;;;;5.00;4.90;;;10.50;25.50;;;;;;6198845;23;20387;-82
2024/02/04 06:43:42;;;;;;;4.80;4.60;;;10.60;25.40;;;;;;6125391;23;20975;-81
2024/02/04 06:46:10;;;;;;;5.27;5.07;;;10.60;25.20;;;;;;6224714;22;20469;-80
2024/02/04 06:48:35;;;;;;;5.10;4.97;;;10.40;25.50;;;;;;6256371;22;20155;-79
2024/02/04 06:51:01;;;;;;;5.17;5.07;;;10.40;25.80;;;;;;6256855;22;20430;-78
2024/02/04 06:53:27;;;;;;;4.80;4.70;;;10.60;25.90;;;;;;6255529;22;20205;-79
2024/02/04 06:55:52;;;;;;;5.03;4.93;;;10.60;25.10;;;;;;6255235;22;20826;-79
2024/02/04 06:58:18;;;;;;;4.77;4.67;;;10.60;25.10;;;;;;6284687;22;20434;-79
2024/02/04 07:00:44;;;;;;;4.80;4.70;;;10.50;25.50;;;;;;6255355;22;20170;-80
2024/02/04 07:03:09;;;;;;;5.10;5.00;;;10.40;25.70;;;;;;6280824;22;20173;-81
2024/02/04 07:05:35;;;;;;;5.03;4.83;;;10.30;26.20;;;;;;6252499;22;20182;-79
2024/02/04 07:08:01;;;;;;;4.70;4.60;;;10.20;26.20;;;;;;6255412;22;20154;-81
2024/02/04 07:10:26;;;;;;;5.53;5.40;;;10.10;26.80;;;;;;6257014;22;20155;-80
2024/02/04 07:12:52;;;;;;;5.43;5.33;;;9.90;28.10;;;;;;6256228;22;20186;-79
2024/02/04 07:15:47;;;;;;;5.03;4.93;;;9.80;28.40;;;;;;6283638;22;20154;-81
2024/02/04 07:22:00;;;;;;;5.20;5.10;;;9.70;29.00;;;;;;6207595;23;20389;-79
2024/02/04 07:24:42;;;;;;;5.33;5.13;;;9.70;28.90;;;;;;6251061;23;20381;-81
2024/02/04 07:27:07;;;;;;;4.93;4.80;;;9.60;29.20;;;;;;6227764;23;20453;-80
2024/02/04 07:29:58;;;;;;;4.90;4.80;;;9.60;29.50;;;;;;6229913;23;20422;-80
2024/02/04 07:32:23;;;;;;;5.10;5.00;;;9.60;29.40;;;;;;6258544;22;20179;-78
2024/02/04 07:34:49;;;;;;;4.90;4.80;;;9.60;30.00;;;;;;6284359;22;20828;-78
2024/02/04 07:37:15;;;;;;;5.20;5.00;;;9.80;29.70;;;;;;6263050;22;20221;-83
2024/02/04 07:39:40;;;;;;;5.33;4.90;;;10.10;28.30;;;;;;6266211;22;20158;-83
2024/02/04 07:42:06;;;;;;;4.70;4.50;;;9.90;28.90;;;;;;6269472;22;20411;-81
2024/02/04 07:44:44;;;;;;;5.00;4.90;;;9.80;29.00;;;;;;6266408;22;20178;-81
2024/02/04 07:47:09;;;;;;;5.13;5.03;;;9.60;29.40;;;;;;6292951;22;20171;-81
2024/02/04 07:49:35;;;;;;;5.07;4.97;;;9.60;29.40;;;;;;6262376;22;20499;-78
2024/02/04 07:52:00;;;;;;;5.50;5.40;;;9.70;29.90;;;;;;6284799;22;20230;-80
2024/02/04 07:54:26;;;;;;;5.90;5.70;;;9.80;29.30;;;;;;6283429;22;20154;-78
2024/02/04 07:56:51;;;;;;;5.00;4.90;;;9.90;29.10;;;;;;6253697;22;20174;-79
2024/02/04 07:59:17;;;;;;;5.13;5.03;;;9.90;29.00;;;;;;6280156;22;20153;-78
2024/02/04 08:01:42;;;;;;;5.70;5.50;;;9.90;28.70;;;;;;6280147;22;20147;-79
2024/02/04 08:04:10;;;;;;;5.13;4.93;;;9.90;28.80;;;;;;6279889;22;20154;-78
2024/02/04 08:06:37;;;;;;;4.30;4.20;;;10.00;28.20;;;;;;6282409;22;20234;-81
2024/02/04 08:09:06;;;;;;;4.87;4.77;;;10.00;27.60;;;;;;6284850;22;20416;-82
2024/02/04 08:11:32;;;;;;;4.87;4.77;;;9.90;29.00;;;;;;6259795;22;20425;-80
2024/02/04 08:13:57;;;;;;;5.10;4.90;;;9.90;29.00;;;;;;6285245;22;20400;-79
2024/02/04 08:16:23;;;;;;;4.97;4.87;;;9.90;28.90;;;;;;6283418;22;20163;-80
2024/02/04 08:18:49;;;;;;;4.70;4.60;;;9.80;28.80;;;;;;6256302;22;20227;-80
2024/02/04 08:21:14;;;;;;;4.73;4.63;;;9.80;29.10;;;;;;6256452;22;20837;-78
2024/02/04 08:23:40;;;;;;;4.87;4.70;;;9.80;28.90;;;;;;6254191;22;20233;-78
2024/02/04 08:26:06;;;;;;;5.00;4.90;;;9.90;28.70;;;;;;6281022;22;20167;-78
2024/02/04 08:28:31;;;;;;;4.83;4.63;;;9.90;28.70;;;;;;6255387;22;20237;-80
2024/02/04 08:30:57;;;;;;;4.90;4.80;;;9.90;28.80;;;;;;6281726;22;20166;-80
2024/02/04 08:33:22;;;;;;;5.10;4.90;;;9.90;29.20;;;;;;6281109;22;20549;-80
2024/02/04 08:35:48;;;;;;;4.90;4.80;;;9.90;29.00;;;;;;6253469;22;20211;-80
2024/02/04 08:38:14;;;;;;;4.53;4.43;;;9.90;28.80;;;;;;6254879;22;20497;-81
2024/02/04 08:40:39;;;;;;;5.00;4.80;;;10.00;28.10;;;;;;6254343;22;20377;-80
2024/02/04 08:43:05;;;;;;;5.37;5.17;;;10.10;28.00;;;;;;6254940;22;20597;-80
2024/02/04 08:45:36;;;;;;;6.60;6.30;;;10.20;27.80;;;;;;6284412;22;20181;-80
2024/02/04 08:48:02;;;;;;;4.40;4.30;;;10.20;27.90;;;;;;6255630;22;20157;-81
2024/02/04 08:50:28;;;;;;;5.20;5.00;;;10.20;27.50;;;;;;6284485;22;20793;-80
2024/02/04 08:52:54;;;;;;;4.67;4.33;;;10.20;27.60;;;;;;6280368;22;20405;-80
2024/02/04 08:55:19;;;;;;;5.27;4.80;;;10.20;27.40;;;;;;6281355;22;20934;-80
2024/02/04 08:57:45;;;;;;;5.20;5.03;;;10.20;27.40;;;;;;6280194;22;20147;-79
2024/02/04 09:00:11;;;;;;;4.60;4.50;;;10.10;28.00;;;;;;6280624;22;20143;-78
2024/02/04 09:02:38;;;;;;;5.10;4.90;;;10.00;28.10;;;;;;6278605;22;20151;-79
2024/02/04 09:05:04;;;;;;;5.33;5.13;;;10.00;28.20;;;;;;6279080;22;20381;-80
2024/02/04 09:07:31;;;;;;;6.03;5.73;;;10.10;28.10;;;;;;6252136;22;20382;-79
2024/02/04 09:09:56;;;;;;;5.07;4.87;;;10.10;28.20;;;;;;6253887;22;20392;-79
2024/02/04 09:12:22;;;;;;;5.50;5.30;;;10.20;28.00;;;;;;6252250;22;20413;-79
2024/02/04 09:14:47;;;;;;;4.60;4.40;;;10.20;28.00;;;;;;6280243;22;20146;-80
2024/02/04 09:17:13;;;;;;;5.70;5.50;;;10.40;27.80;;;;;;6279390;22;20261;-80
2024/02/04 09:19:43;;;;;;;5.57;5.27;;;10.50;27.20;;;;;;6253069;22;20174;-83
2024/02/04 09:22:08;;;;;;;4.70;4.60;;;10.50;27.00;;;;;;6252862;22;20600;-79
2024/02/04 09:24:34;;;;;;;4.80;4.70;;;10.50;27.10;;;;;;6252995;22;20405;-79
2024/02/04 09:27:00;;;;;;;4.37;4.27;;;10.50;27.00;;;;;;6251778;22;20201;-81
2024/02/04 09:29:25;;;;;;;4.20;4.10;;;10.60;27.00;;;;;;6253852;22;20531;-80
2024/02/04 09:31:53;;;;;;;4.20;4.10;;;10.70;26.90;;;;;;6255540;22;20170;-82
2024/02/04 09:34:19;;;;;;;4.77;4.67;;;10.80;26.50;;;;;;6255458;22;20189;-81
2024/02/04 09:36:45;;;;;;;4.03;3.93;;;11.00;26.60;;;;;;6283654;22;20396;-81
2024/02/04 09:39:11;;;;;;;4.10;4.00;;;11.10;26.10;;;;;;6284785;22;20453;-81
2024/02/04 09:41:37;;;;;;;4.47;4.37;;;11.20;25.80;;;;;;6257685;22;20158;-81
2024/02/04 09:44:04;;;;;;;4.53;4.43;;;11.10;25.60;;;;;;6256767;22;20247;-81
2024/02/04 09:46:30;;;;;;;5.20;5.10;;;10.90;26.00;;;;;;6281545;22;20397;-81
2024/02/04 09:48:55;;;;;;;8.10;7.70;;;10.90;26.20;;;;;;6282398;22;20396;-81
2024/02/04 09:51:21;;;;;;;4.80;4.60;;;10.90;26.30;;;;;;6283954;22;20228;-81
2024/02/04 09:53:52;;;;;;;4.73;4.63;;;10.90;26.20;;;;;;6282646;22;20181;-81
2024/02/04 09:56:19;;;;;;;4.70;4.60;;;10.80;26.20;;;;;;6285208;22;20389;-81
2024/02/04 09:58:45;;;;;;;4.70;4.60;;;10.80;26.50;;;;;;6281502;22;20401;-81
2024/02/04 10:01:12;;;;;;;5.00;4.90;;;10.90;26.00;;;;;;6256852;22;20377;-81
2024/02/04 10:03:38;;;;;;;4.10;4.00;;;10.90;26.30;;;;;;6256085;22;20412;-81
2024/02/04 10:06:04;;;;;;;3.90;3.80;;;10.80;25.90;;;;;;6282877;22;20389;-82
2024/02/04 10:08:30;;;;;;;4.03;3.93;;;10.70;26.40;;;;;;6282640;22;20174;-81
2024/02/04 10:10:56;;;;;;;5.10;4.90;;;10.80;26.40;;;;;;6255965;22;20381;-78
2024/02/04 10:13:25;;;;;;;4.20;4.10;;;11.00;26.10;;;;;;6257618;22;20182;-80
2024/02/04 10:16:03;;;;;;;4.53;4.33;;;11.00;26.20;;;;;;6284721;22;20393;-82
2024/02/04 10:19:18;;;;;;;4.37;4.27;;;11.00;26.00;;;;;;6288035;22;20433;-81
2024/02/04 10:21:44;;;;;;;4.70;4.60;;;11.10;26.00;;;;;;6284915;22;20384;-81
2024/02/04 10:24:10;;;;;;;4.40;4.30;;;11.00;26.00;;;;;;6234815;22;20381;-81
2024/02/04 10:26:41;;;;;;;8.00;7.57;;;11.10;26.20;;;;;;6260106;22;20186;-80
2024/02/04 10:29:17;;;;;;;5.23;5.13;;;11.20;25.90;;;;;;6261972;22;20229;-80
2024/02/04 10:31:47;;;;;;;4.77;4.67;;;11.30;25.60;;;;;;6258454;22;21079;-81
2024/02/04 10:34:22;;;;;;;4.87;4.67;;;11.40;25.40;;;;;;6284182;22;20369;-81
2024/02/04 10:36:48;;;;;;;4.20;4.10;;;11.40;25.20;;;;;;6284513;22;20431;-81
2024/02/04 10:39:13;;;;;;;4.90;4.80;;;11.40;25.00;;;;;;6258141;22;20433;-81
2024/02/04 10:41:49;;;;;;;4.93;4.83;;;11.50;25.00;;;;;;6284934;22;20658;-83
2024/02/04 10:44:17;;;;;;;5.13;4.87;;;11.70;24.40;;;;;;6282951;22;20647;-81
2024/02/04 10:46:46;;;;;;;4.30;4.20;;;11.70;24.40;;;;;;6281335;22;20401;-82
2024/02/04 10:49:14;;;;;;;4.47;4.37;;;11.80;24.40;;;;;;6285069;22;20373;-81
2024/02/04 10:51:42;;;;;;;4.20;4.10;;;11.70;24.40;;;;;;6285883;22;20427;-82
2024/02/04 10:54:08;;;;;;;4.77;4.67;;;11.70;24.40;;;;;;6283339;22;20392;-83
2024/02/04 10:56:43;;;;;;;4.30;4.13;;;11.90;24.50;;;;;;6282464;22;20393;-82
2024/02/04 10:59:19;;;;;;;4.10;4.00;;;12.10;24.50;;;;;;6283506;22;20659;-79
2024/02/04 11:01:48;;;;;;;4.20;4.10;;;12.20;24.10;;;;;;6208058;22;20509;-80
2024/02/04 11:04:25;;;;;;;4.10;4.00;;;12.30;24.10;;;;;;6285668;22;20391;-81
2024/02/04 11:07:16;;;;;;;3.80;3.70;;;12.10;24.60;;;;;;6219483;22;20393;-81
2024/02/04 11:09:49;;;;;;;4.13;4.03;;;12.20;24.10;;;;;;6290346;22;20361;-81
2024/02/04 11:12:17;;;;;;;3.80;3.63;;;12.20;24.00;;;;;;6301925;22;20453;-81
2024/02/04 11:14:50;;;;;;;3.83;3.73;;;12.20;24.30;;;;;;6302584;22;20394;-79
2024/02/04 11:17:48;;;;;;;4.30;4.20;;;12.10;24.40;;;;;;6302801;22;20418;-79
2024/02/04 11:20:37;;;;;;;4.23;4.13;;;12.10;24.60;;;;;;6303971;22;20365;-79
2024/02/04 11:23:38;;;;;;;4.63;4.53;;;12.10;24.60;;;;;;6266791;22;20389;-82
2024/02/04 11:26:26;;;;;;;4.20;4.10;;;12.10;24.60;;;;;;6264406;22;20412;-81
2024/02/04 11:28:52;;;;;;;5.03;4.87;;;12.10;24.60;;;;;;6257865;22;20357;-80
2024/02/04 11:31:18;;;;;;;4.10;4.00;;;12.10;24.60;;;;;;6256170;22;20723;-80
2024/02/04 11:33:54;;;;;;;4.40;4.30;;;12.10;24.60;;;;;;6256157;22;20456;-80
2024/02/04 11:36:39;;;;;;;4.30;4.20;;;12.10;24.60;;;;;;6278910;22;20249;-80
2024/02/04 11:39:23;;;;;;;4.20;4.10;;;12.20;24.40;;;;;;6277916;22;20381;-80
2024/02/04 11:42:20;;;;;;;4.30;4.13;;;12.20;24.50;;;;;;6224809;22;20389;-80
2024/02/04 11:45:21;;;;;;;4.37;4.27;;;12.20;24.70;;;;;;6276074;22;20726;-82
2024/02/04 11:48:20;;;;;;;4.30;4.20;;;12.20;24.70;;;;;;6278418;22;20377;-82
2024/02/04 11:51:07;;;;;;;3.73;3.63;;;12.20;24.70;;;;;;6241375;22;20381;-82
2024/02/04 11:53:38;;;;;;;4.40;4.30;;;12.20;24.70;;;;;;6251859;22;20461;-81
2024/02/04 11:56:08;;;;;;;3.97;3.87;;;12.20;24.70;;;;;;6277862;22;20432;-82
2024/02/04 11:59:07;;;;;;;4.20;4.10;;;12.20;24.70;;;;;;6252890;22;20384;-82
2024/02/04 12:01:40;;;;;;;4.23;4.13;;;12.30;24.80;;;;;;6279956;22;20369;-81
2024/02/04 12:05:04;;;;;;;4.10;4.00;;;12.30;24.80;;;;;;6192600;22;20439;-82
2024/02/04 12:08:28;;;;;;;4.73;4.63;;;12.30;24.80;;;;;;6272527;22;20389;-83
2024/02/04 12:17:21;;;;;;;4.30;4.20;;;12.30;24.80;;;;;;6206602;22;20408;-80
2024/02/04 12:19:46;;;;;;;4.27;4.17;;;12.30;24.80;;;;;;6257412;22;20388;-80
2024/02/04 12:22:13;;;;;;;4.33;4.23;;;12.30;24.80;;;;;;6259564;22;20835;-80
2024/02/04 12:24:39;;;;;;;4.10;4.00;;;12.30;24.80;;;;;;6285604;22;20158;-80
2024/02/04 12:27:05;;;;;;;3.60;3.50;;;12.40;24.80;;;;;;6259300;22;20397;-80
2024/02/04 12:29:32;;;;;;;3.50;3.40;;;12.50;24.90;;;;;;6259599;22;20151;-80
2024/02/04 12:32:02;;;;;;;3.57;3.47;;;12.40;24.70;;;;;;6285650;22;20439;-79
2024/02/04 12:34:28;;;;;;;3.40;3.30;;;12.40;24.40;;;;;;6259409;22;20384;-79
2024/02/04 12:37:01;;;;;;;4.00;3.90;;;12.30;24.40;;;;;;6259823;22;20867;-80
2024/02/04 12:39:27;;;;;;;3.60;3.50;;;12.20;24.70;;;;;;6259183;22;20381;-80
2024/02/04 12:41:53;;;;;;;3.63;3.53;;;12.20;24.70;;;;;;6285512;22;20827;-79
2024/02/04 12:44:19;;;;;;;4.53;3.77;;;12.30;24.80;;;;;;6285193;22;20378;-78
2024/02/04 12:46:44;;;;;;;5.27;4.83;;;12.40;24.30;;;;;;6284243;22;20389;-78
2024/02/04 12:49:17;;;;;;;21.43;19.80;;;12.30;24.80;;;;;;6257519;22;20155;-80
2024/02/04 12:51:42;;;;;;;4.40;4.07;;;12.50;24.00;;;;;;6256948;22;20175;-80
2024/02/04 12:54:10;;;;;;;3.93;3.83;;;12.30;24.60;;;;;;6284570;22;20453;-80
2024/02/04 12:56:49;;;;;;;4.20;4.00;;;12.20;24.70;;;;;;6257494;22;20186;-80
2024/02/04 12:59:30;;;;;;;3.60;3.50;;;12.20;24.70;;;;;;6284573;22;20546;-80
2024/02/04 13:01:57;;;;;;;4.50;4.30;;;12.30;24.80;;;;;;6283695;22;20373;-80
2024/02/04 13:04:23;;;;;;;4.30;4.20;;;12.40;24.80;;;;;;6257173;22;20453;-79
2024/02/04 13:06:48;;;;;;;4.33;4.23;;;12.50;24.10;;;;;;6257506;22;20761;-80
2024/02/04 13:09:15;;;;;;;4.40;4.20;;;12.80;23.60;;;;;;6284628;22;20643;-79
2024/02/04 13:11:42;;;;;;;4.60;4.50;;;12.90;23.50;;;;;;6285598;22;20205;-79
2024/02/04 13:14:08;;;;;;;4.43;4.23;;;12.80;23.40;;;;;;6285705;22;20380;-80
2024/02/04 13:16:35;;;;;;;4.47;4.37;;;12.70;23.40;;;;;;6258734;22;20401;-79
2024/02/04 13:19:01;;;;;;;4.37;4.27;;;12.70;23.60;;;;;;6258603;22;20421;-79
2024/02/04 13:21:28;;;;;;;4.10;4.00;;;12.80;23.20;;;;;;6286347;22;20384;-80
2024/02/04 13:23:53;;;;;;;4.87;4.77;;;12.80;23.30;;;;;;6286701;22;20379;-79
2024/02/04 13:26:19;;;;;;;5.23;5.03;;;12.90;23.20;;;;;;6285030;22;20401;-79
2024/02/04 13:28:45;;;;;;;4.50;4.40;;;12.90;23.00;;;;;;6259232;22;20155;-80
2024/02/04 13:31:11;;;;;;;4.63;4.53;;;12.90;23.40;;;;;;6287167;22;20166;-79
2024/02/04 13:33:39;;;;;;;4.80;4.70;;;12.60;23.70;;;;;;6286394;22;20402;-80
2024/02/04 13:36:05;;;;;;;4.27;4.17;;;12.60;23.90;;;;;;6284324;22;20408;-81
2024/02/04 13:38:31;;;;;;;4.97;4.77;;;12.70;24.10;;;;;;6286267;22;20368;-78
2024/02/04 13:40:56;;;;;;;4.77;4.67;;;12.50;24.20;;;;;;6286453;22;20679;-79
2024/02/04 13:43:22;;;;;;;4.17;4.07;;;12.70;23.80;;;;;;6258789;22;20154;-79
2024/02/04 13:45:48;;;;;;;4.27;4.17;;;12.50;24.10;;;;;;6256463;22;20513;-80
2024/02/04 13:48:13;;;;;;;4.70;4.60;;;12.40;24.20;;;;;;6283958;22;20177;-80
2024/02/04 13:50:39;;;;;;;4.40;4.30;;;12.30;24.30;;;;;;6257287;22;20150;-79
2024/02/04 13:53:11;;;;;;;4.67;4.57;;;12.30;24.80;;;;;;6285132;22;20225;-80
2024/02/04 13:55:37;;;;;;;4.70;4.60;;;12.30;24.80;;;;;;6284433;22;20163;-79
2024/02/04 13:58:03;;;;;;;4.23;4.13;;;12.20;24.70;;;;;;6257044;22;20381;-80
2024/02/04 14:00:28;;;;;;;4.40;4.30;;;12.20;24.70;;;;;;6284417;22;20386;-79
2024/02/04 14:02:54;;;;;;;4.97;4.77;;;12.40;24.80;;;;;;6260991;22;20405;-79